sensor_id;sensor_type;location;lat;lon;timestamp;P1;durP1;ratioP1;P2;durP2;ratioP2
30472;SDS011;17263;48.160;11.452;2022-07-23T00:02:06;8.43;;;7.60;;
30472;SDS011;17263;48.160;11.452;2022-07-23T00:04:33;8.05;;;7.25;;
30472;SDS011;17263;48.160;11.452;2022-07-23T00:06:59;8.05;;;7.32;;
30472;SDS011;17263;48.160;11.452;2022-07-23T00:09:25;11.13;;;6.70;;
30472;SDS011;17263;48.160;11.452;2022-07-23T00:11:51;7.97;;;7.28;;
30472;SDS011;17263;48.160;11.452;2022-07-23T00:14:17;7.78;;;7.07;;
30472;SDS011;17263;48.160;11.452;2022-07-23T00:16:44;8.15;;;7.45;;
30472;SDS011;17263;48.160;11.452;2022-07-23T00:19:10;8.30;;;7.45;;
30472;SDS011;17263;48.160;11.452;2022-07-23T00:21:36;8.40;;;7.53;;
30472;SDS011;17263;48.160;11.452;2022-07-23T00:24:02;7.68;;;7.07;;
30472;SDS011;17263;48.160;11.452;2022-07-23T00:26:28;7.45;;;6.75;;
30472;SDS011;17263;48.160;11.452;2022-07-23T00:28:54;7.83;;;7.13;;
30472;SDS011;17263;48.160;11.452;2022-07-23T00:31:20;7.83;;;7.10;;
30472;SDS011;17263;48.160;11.452;2022-07-23T00:33:46;8.10;;;7.45;;
30472;SDS011;17263;48.160;11.452;2022-07-23T00:36:12;8.80;;;8.00;;
30472;SDS011;17263;48.160;11.452;2022-07-23T00:38:38;7.88;;;7.13;;
30472;SDS011;17263;48.160;11.452;2022-07-23T00:41:04;7.20;;;6.60;;
30472;SDS011;17263;48.160;11.452;2022-07-23T00:43:30;7.47;;;6.87;;
30472;SDS011;17263;48.160;11.452;2022-07-23T00:45:56;7.10;;;6.40;;
30472;SDS011;17263;48.160;11.452;2022-07-23T00:48:22;7.70;;;7.00;;
30472;SDS011;17263;48.160;11.452;2022-07-23T00:50:48;7.77;;;7.17;;
30472;SDS011;17263;48.160;11.452;2022-07-23T00:53:15;8.07;;;6.60;;
30472;SDS011;17263;48.160;11.452;2022-07-23T00:55:41;7.77;;;7.07;;
30472;SDS011;17263;48.160;11.452;2022-07-23T00:58:07;7.20;;;6.60;;
30472;SDS011;17263;48.160;11.452;2022-07-23T01:00:34;7.37;;;6.77;;
30472;SDS011;17263;48.160;11.452;2022-07-23T01:03:00;7.80;;;7.07;;
30472;SDS011;17263;48.160;11.452;2022-07-23T01:05:26;8.10;;;7.30;;
30472;SDS011;17263;48.160;11.452;2022-07-23T01:07:52;11.80;;;7.10;;
30472;SDS011;17263;48.160;11.452;2022-07-23T01:10:18;8.53;;;7.63;;
30472;SDS011;17263;48.160;11.452;2022-07-23T01:13:00;8.30;;;7.50;;
30472;SDS011;17263;48.160;11.452;2022-07-23T01:15:29;9.17;;;7.57;;
30472;SDS011;17263;48.160;11.452;2022-07-23T01:17:55;11.48;;;8.25;;
30472;SDS011;17263;48.160;11.452;2022-07-23T01:20:21;11.67;;;8.50;;
30472;SDS011;17263;48.160;11.452;2022-07-23T01:22:48;9.93;;;8.40;;
30472;SDS011;17263;48.160;11.452;2022-07-23T01:25:14;10.15;;;7.35;;
30472;SDS011;17263;48.160;11.452;2022-07-23T01:27:40;12.55;;;7.47;;
30472;SDS011;17263;48.160;11.452;2022-07-23T01:30:06;14.27;;;7.17;;
30472;SDS011;17263;48.160;11.452;2022-07-23T01:32:33;9.00;;;6.40;;
30472;SDS011;17263;48.160;11.452;2022-07-23T01:34:59;11.10;;;5.20;;
30472;SDS011;17263;48.160;11.452;2022-07-23T01:37:25;14.37;;;7.43;;
30472;SDS011;17263;48.160;11.452;2022-07-23T01:39:51;9.00;;;6.87;;
30472;SDS011;17263;48.160;11.452;2022-07-23T01:42:17;10.67;;;7.43;;
30472;SDS011;17263;48.160;11.452;2022-07-23T01:44:43;12.10;;;7.40;;
30472;SDS011;17263;48.160;11.452;2022-07-23T01:47:09;10.27;;;7.70;;
30472;SDS011;17263;48.160;11.452;2022-07-23T01:49:36;10.47;;;7.67;;
30472;SDS011;17263;48.160;11.452;2022-07-23T01:52:02;9.63;;;7.50;;
30472;SDS011;17263;48.160;11.452;2022-07-23T01:54:32;11.83;;;7.90;;
30472;SDS011;17263;48.160;11.452;2022-07-23T01:56:59;7.83;;;7.03;;
30472;SDS011;17263;48.160;11.452;2022-07-23T01:59:26;9.77;;;8.10;;
30472;SDS011;17263;48.160;11.452;2022-07-23T02:01:53;9.73;;;7.97;;
30472;SDS011;17263;48.160;11.452;2022-07-23T02:04:19;12.40;;;7.70;;
30472;SDS011;17263;48.160;11.452;2022-07-23T02:06:47;7.60;;;6.87;;
30472;SDS011;17263;48.160;11.452;2022-07-23T02:09:13;8.17;;;7.37;;
30472;SDS011;17263;48.160;11.452;2022-07-23T02:11:40;8.73;;;7.00;;
30472;SDS011;17263;48.160;11.452;2022-07-23T02:14:06;9.57;;;7.30;;
30472;SDS011;17263;48.160;11.452;2022-07-23T02:16:32;7.63;;;6.83;;
30472;SDS011;17263;48.160;11.452;2022-07-23T02:18:58;8.07;;;6.40;;
30472;SDS011;17263;48.160;11.452;2022-07-23T02:21:24;11.90;;;7.03;;
30472;SDS011;17263;48.160;11.452;2022-07-23T02:23:50;8.43;;;6.87;;
30472;SDS011;17263;48.160;11.452;2022-07-23T02:26:16;9.73;;;7.07;;
30472;SDS011;17263;48.160;11.452;2022-07-23T02:28:42;7.23;;;6.53;;
30472;SDS011;17263;48.160;11.452;2022-07-23T02:31:08;9.00;;;6.10;;
30472;SDS011;17263;48.160;11.452;2022-07-23T02:33:35;7.63;;;5.20;;
30472;SDS011;17263;48.160;11.452;2022-07-23T02:36:01;5.77;;;5.23;;
30472;SDS011;17263;48.160;11.452;2022-07-23T02:38:27;5.87;;;5.27;;
30472;SDS011;17263;48.160;11.452;2022-07-23T02:40:53;12.80;;;5.57;;
30472;SDS011;17263;48.160;11.452;2022-07-23T02:43:19;6.20;;;5.60;;
30472;SDS011;17263;48.160;11.452;2022-07-23T02:45:45;6.17;;;5.27;;
30472;SDS011;17263;48.160;11.452;2022-07-23T02:48:11;6.27;;;5.40;;
30472;SDS011;17263;48.160;11.452;2022-07-23T02:50:40;8.27;;;5.90;;
30472;SDS011;17263;48.160;11.452;2022-07-23T02:53:06;6.43;;;5.00;;
30472;SDS011;17263;48.160;11.452;2022-07-23T02:55:32;6.97;;;5.70;;
30472;SDS011;17263;48.160;11.452;2022-07-23T02:57:58;8.13;;;5.67;;
30472;SDS011;17263;48.160;11.452;2022-07-23T03:00:24;6.67;;;5.20;;
30472;SDS011;17263;48.160;11.452;2022-07-23T03:02:50;6.43;;;5.13;;
30472;SDS011;17263;48.160;11.452;2022-07-23T03:05:16;6.33;;;4.67;;
30472;SDS011;17263;48.160;11.452;2022-07-23T03:07:42;7.27;;;4.40;;
30472;SDS011;17263;48.160;11.452;2022-07-23T03:10:08;6.40;;;4.37;;
30472;SDS011;17263;48.160;11.452;2022-07-23T03:12:34;4.90;;;4.40;;
30472;SDS011;17263;48.160;11.452;2022-07-23T03:15:00;5.13;;;4.63;;
30472;SDS011;17263;48.160;11.452;2022-07-23T03:17:26;4.93;;;4.43;;
30472;SDS011;17263;48.160;11.452;2022-07-23T03:19:52;5.23;;;4.73;;
30472;SDS011;17263;48.160;11.452;2022-07-23T03:22:18;5.70;;;4.37;;
30472;SDS011;17263;48.160;11.452;2022-07-23T03:24:44;4.87;;;4.20;;
30472;SDS011;17263;48.160;11.452;2022-07-23T03:27:23;4.30;;;4.00;;
30472;SDS011;17263;48.160;11.452;2022-07-23T03:29:51;4.53;;;4.13;;
30472;SDS011;17263;48.160;11.452;2022-07-23T03:32:18;5.43;;;4.93;;
30472;SDS011;17263;48.160;11.452;2022-07-23T03:34:45;5.97;;;4.60;;
30472;SDS011;17263;48.160;11.452;2022-07-23T03:37:11;5.87;;;5.37;;
30472;SDS011;17263;48.160;11.452;2022-07-23T03:39:37;5.60;;;5.10;;
30472;SDS011;17263;48.160;11.452;2022-07-23T03:42:04;6.00;;;5.47;;
30472;SDS011;17263;48.160;11.452;2022-07-23T03:44:30;7.73;;;5.67;;
30472;SDS011;17263;48.160;11.452;2022-07-23T03:46:56;5.87;;;5.27;;
30472;SDS011;17263;48.160;11.452;2022-07-23T03:49:22;5.90;;;5.40;;
30472;SDS011;17263;48.160;11.452;2022-07-23T03:51:48;6.67;;;5.97;;
30472;SDS011;17263;48.160;11.452;2022-07-23T03:54:14;6.50;;;5.90;;
30472;SDS011;17263;48.160;11.452;2022-07-23T03:56:40;7.33;;;5.97;;
30472;SDS011;17263;48.160;11.452;2022-07-23T03:59:08;6.20;;;5.60;;
30472;SDS011;17263;48.160;11.452;2022-07-23T04:01:34;7.00;;;5.70;;
30472;SDS011;17263;48.160;11.452;2022-07-23T04:04:01;6.60;;;6.00;;
30472;SDS011;17263;48.160;11.452;2022-07-23T04:06:27;7.13;;;5.97;;
30472;SDS011;17263;48.160;11.452;2022-07-23T04:08:53;6.87;;;5.80;;
30472;SDS011;17263;48.160;11.452;2022-07-23T04:11:20;6.73;;;5.47;;
30472;SDS011;17263;48.160;11.452;2022-07-23T04:13:47;6.03;;;5.43;;
30472;SDS011;17263;48.160;11.452;2022-07-23T04:16:13;6.30;;;5.73;;
30472;SDS011;17263;48.160;11.452;2022-07-23T04:18:39;5.57;;;5.07;;
30472;SDS011;17263;48.160;11.452;2022-07-23T04:21:05;6.40;;;5.73;;
30472;SDS011;17263;48.160;11.452;2022-07-23T04:23:31;6.57;;;5.97;;
30472;SDS011;17263;48.160;11.452;2022-07-23T04:25:57;6.13;;;5.60;;
30472;SDS011;17263;48.160;11.452;2022-07-23T04:28:23;6.43;;;5.77;;
30472;SDS011;17263;48.160;11.452;2022-07-23T04:30:49;6.47;;;5.87;;
30472;SDS011;17263;48.160;11.452;2022-07-23T04:33:15;6.30;;;5.70;;
30472;SDS011;17263;48.160;11.452;2022-07-23T04:35:41;6.00;;;5.57;;
30472;SDS011;17263;48.160;11.452;2022-07-23T04:38:07;5.93;;;5.43;;
30472;SDS011;17263;48.160;11.452;2022-07-23T04:40:33;6.17;;;5.67;;
30472;SDS011;17263;48.160;11.452;2022-07-23T04:42:59;6.40;;;5.47;;
30472;SDS011;17263;48.160;11.452;2022-07-23T04:45:25;6.40;;;5.87;;
30472;SDS011;17263;48.160;11.452;2022-07-23T04:47:51;6.20;;;5.60;;
30472;SDS011;17263;48.160;11.452;2022-07-23T04:50:17;5.97;;;5.43;;
30472;SDS011;17263;48.160;11.452;2022-07-23T04:52:47;7.70;;;6.17;;
30472;SDS011;17263;48.160;11.452;2022-07-23T04:55:14;7.97;;;6.00;;
30472;SDS011;17263;48.160;11.452;2022-07-23T04:57:40;6.73;;;5.97;;
30472;SDS011;17263;48.160;11.452;2022-07-23T05:00:07;6.43;;;5.83;;
30472;SDS011;17263;48.160;11.452;2022-07-23T05:02:33;6.63;;;6.03;;
30472;SDS011;17263;48.160;11.452;2022-07-23T05:04:59;6.30;;;5.70;;
30472;SDS011;17263;48.160;11.452;2022-07-23T05:07:25;6.47;;;5.87;;
30472;SDS011;17263;48.160;11.452;2022-07-23T05:09:51;6.70;;;5.63;;
30472;SDS011;17263;48.160;11.452;2022-07-23T05:12:17;6.53;;;5.63;;
30472;SDS011;17263;48.160;11.452;2022-07-23T05:14:43;6.13;;;5.63;;
30472;SDS011;17263;48.160;11.452;2022-07-23T05:17:09;7.63;;;6.23;;
30472;SDS011;17263;48.160;11.452;2022-07-23T05:19:35;6.40;;;5.80;;
30472;SDS011;17263;48.160;11.452;2022-07-23T05:22:01;6.63;;;6.03;;
30472;SDS011;17263;48.160;11.452;2022-07-23T05:24:27;6.47;;;5.87;;
30472;SDS011;17263;48.160;11.452;2022-07-23T05:26:53;6.47;;;5.73;;
30472;SDS011;17263;48.160;11.452;2022-07-23T05:29:19;6.80;;;6.10;;
30472;SDS011;17263;48.160;11.452;2022-07-23T05:31:45;6.57;;;6.00;;
30472;SDS011;17263;48.160;11.452;2022-07-23T05:34:11;6.93;;;5.70;;
30472;SDS011;17263;48.160;11.452;2022-07-23T05:36:38;6.27;;;5.67;;
30472;SDS011;17263;48.160;11.452;2022-07-23T05:39:04;6.73;;;6.13;;
30472;SDS011;17263;48.160;11.452;2022-07-23T05:41:30;7.10;;;6.50;;
30472;SDS011;17263;48.160;11.452;2022-07-23T05:43:56;6.50;;;5.90;;
30472;SDS011;17263;48.160;11.452;2022-07-23T05:46:22;7.70;;;6.40;;
30472;SDS011;17263;48.160;11.452;2022-07-23T05:48:48;6.80;;;6.13;;
30472;SDS011;17263;48.160;11.452;2022-07-23T05:51:20;6.70;;;6.20;;
30472;SDS011;17263;48.160;11.452;2022-07-23T05:53:47;6.90;;;6.30;;
30472;SDS011;17263;48.160;11.452;2022-07-23T05:56:14;6.80;;;6.20;;
30472;SDS011;17263;48.160;11.452;2022-07-23T05:58:41;7.07;;;6.40;;
30472;SDS011;17263;48.160;11.452;2022-07-23T06:01:07;7.63;;;6.13;;
30472;SDS011;17263;48.160;11.452;2022-07-23T06:03:33;7.30;;;6.60;;
30472;SDS011;17263;48.160;11.452;2022-07-23T06:06:00;7.20;;;6.50;;
30472;SDS011;17263;48.160;11.452;2022-07-23T06:08:26;6.83;;;6.20;;
30472;SDS011;17263;48.160;11.452;2022-07-23T06:10:52;7.13;;;6.43;;
30472;SDS011;17263;48.160;11.452;2022-07-23T06:13:18;7.53;;;6.77;;
30472;SDS011;17263;48.160;11.452;2022-07-23T06:15:44;9.07;;;7.17;;
30472;SDS011;17263;48.160;11.452;2022-07-23T06:18:10;7.47;;;6.77;;
30472;SDS011;17263;48.160;11.452;2022-07-23T06:20:36;7.00;;;6.40;;
30472;SDS011;17263;48.160;11.452;2022-07-23T06:23:03;6.80;;;6.30;;
30472;SDS011;17263;48.160;11.452;2022-07-23T06:25:29;7.23;;;6.63;;
30472;SDS011;17263;48.160;11.452;2022-07-23T06:27:55;8.27;;;6.60;;
30472;SDS011;17263;48.160;11.452;2022-07-23T06:30:21;7.93;;;7.23;;
30472;SDS011;17263;48.160;11.452;2022-07-23T06:32:48;6.80;;;6.10;;
30472;SDS011;17263;48.160;11.452;2022-07-23T06:35:15;7.23;;;6.63;;
30472;SDS011;17263;48.160;11.452;2022-07-23T06:37:42;7.53;;;6.80;;
30472;SDS011;17263;48.160;11.452;2022-07-23T06:40:08;9.13;;;7.07;;
30472;SDS011;17263;48.160;11.452;2022-07-23T06:42:35;7.97;;;7.27;;
30472;SDS011;17263;48.160;11.452;2022-07-23T06:45:07;7.67;;;6.97;;
30472;SDS011;17263;48.160;11.452;2022-07-23T06:47:34;7.53;;;6.83;;
30472;SDS011;17263;48.160;11.452;2022-07-23T06:50:00;7.33;;;6.73;;
30472;SDS011;17263;48.160;11.452;2022-07-23T06:52:26;7.20;;;6.60;;
30472;SDS011;17263;48.160;11.452;2022-07-23T06:54:52;8.30;;;7.40;;
30472;SDS011;17263;48.160;11.452;2022-07-23T06:57:18;9.20;;;8.40;;
30472;SDS011;17263;48.160;11.452;2022-07-23T06:59:44;8.10;;;7.30;;
30472;SDS011;17263;48.160;11.452;2022-07-23T07:02:10;8.43;;;7.57;;
30472;SDS011;17263;48.160;11.452;2022-07-23T07:04:36;7.50;;;6.80;;
30472;SDS011;17263;48.160;11.452;2022-07-23T07:07:02;7.40;;;6.80;;
30472;SDS011;17263;48.160;11.452;2022-07-23T07:09:28;7.70;;;6.90;;
30472;SDS011;17263;48.160;11.452;2022-07-23T07:11:54;7.90;;;7.20;;
30472;SDS011;17263;48.160;11.452;2022-07-23T07:14:22;7.93;;;7.23;;
30472;SDS011;17263;48.160;11.452;2022-07-23T07:16:48;8.20;;;7.50;;
30472;SDS011;17263;48.160;11.452;2022-07-23T07:19:14;7.73;;;7.10;;
30472;SDS011;17263;48.160;11.452;2022-07-23T07:21:40;7.63;;;6.90;;
30472;SDS011;17263;48.160;11.452;2022-07-23T07:24:06;8.77;;;7.43;;
30472;SDS011;17263;48.160;11.452;2022-07-23T07:26:32;8.83;;;7.27;;
30472;SDS011;17263;48.160;11.452;2022-07-23T07:28:58;8.00;;;7.20;;
30472;SDS011;17263;48.160;11.452;2022-07-23T07:31:25;7.60;;;6.90;;
30472;SDS011;17263;48.160;11.452;2022-07-23T07:33:51;7.37;;;6.67;;
30472;SDS011;17263;48.160;11.452;2022-07-23T07:36:17;7.53;;;6.93;;
30472;SDS011;17263;48.160;11.452;2022-07-23T07:38:43;8.70;;;7.80;;
30472;SDS011;17263;48.160;11.452;2022-07-23T07:41:09;10.80;;;7.40;;
30472;SDS011;17263;48.160;11.452;2022-07-23T07:43:35;7.67;;;6.90;;
30472;SDS011;17263;48.160;11.452;2022-07-23T07:46:02;9.37;;;7.20;;
30472;SDS011;17263;48.160;11.452;2022-07-23T07:48:29;8.70;;;7.70;;
30472;SDS011;17263;48.160;11.452;2022-07-23T07:50:55;8.27;;;6.93;;
30472;SDS011;17263;48.160;11.452;2022-07-23T07:53:21;7.47;;;6.87;;
30472;SDS011;17263;48.160;11.452;2022-07-23T07:55:47;10.03;;;7.03;;
30472;SDS011;17263;48.160;11.452;2022-07-23T07:58:13;7.73;;;7.03;;
30472;SDS011;17263;48.160;11.452;2022-07-23T08:00:39;7.90;;;7.30;;
30472;SDS011;17263;48.160;11.452;2022-07-23T08:03:06;8.23;;;7.53;;
30472;SDS011;17263;48.160;11.452;2022-07-23T08:05:32;7.83;;;7.07;;
30472;SDS011;17263;48.160;11.452;2022-07-23T08:07:58;6.93;;;6.33;;
30472;SDS011;17263;48.160;11.452;2022-07-23T08:10:25;7.93;;;7.20;;
30472;SDS011;17263;48.160;11.452;2022-07-23T08:12:53;7.60;;;6.90;;
30472;SDS011;17263;48.160;11.452;2022-07-23T08:15:27;7.93;;;7.10;;
30472;SDS011;17263;48.160;11.452;2022-07-23T08:17:54;9.60;;;7.27;;
30472;SDS011;17263;48.160;11.452;2022-07-23T08:20:21;7.80;;;7.03;;
30472;SDS011;17263;48.160;11.452;2022-07-23T08:22:49;7.77;;;7.07;;
30472;SDS011;17263;48.160;11.452;2022-07-23T08:25:19;11.37;;;7.47;;
30472;SDS011;17263;48.160;11.452;2022-07-23T08:27:47;7.77;;;7.07;;
30472;SDS011;17263;48.160;11.452;2022-07-23T08:30:14;7.23;;;6.63;;
30472;SDS011;17263;48.160;11.452;2022-07-23T08:35:31;7.47;;;6.70;;
30472;SDS011;17263;48.160;11.452;2022-07-23T08:38:00;7.13;;;6.50;;
30472;SDS011;17263;48.160;11.452;2022-07-23T08:40:28;6.70;;;6.07;;
30472;SDS011;17263;48.160;11.452;2022-07-23T08:42:56;7.30;;;6.60;;
30472;SDS011;17263;48.160;11.452;2022-07-23T08:45:24;6.90;;;6.20;;
30472;SDS011;17263;48.160;11.452;2022-07-23T08:47:53;7.23;;;6.57;;
30472;SDS011;17263;48.160;11.452;2022-07-23T08:50:20;8.10;;;6.90;;
30472;SDS011;17263;48.160;11.452;2022-07-23T08:52:48;6.87;;;5.93;;
30472;SDS011;17263;48.160;11.452;2022-07-23T08:55:16;7.70;;;6.97;;
30472;SDS011;17263;48.160;11.452;2022-07-23T08:57:43;6.57;;;5.97;;
30472;SDS011;17263;48.160;11.452;2022-07-23T09:00:10;8.87;;;6.37;;
30472;SDS011;17263;48.160;11.452;2022-07-23T09:02:40;7.67;;;6.00;;
30472;SDS011;17263;48.160;11.452;2022-07-23T09:05:08;7.00;;;6.40;;
30472;SDS011;17263;48.160;11.452;2022-07-23T09:07:36;8.50;;;6.93;;
30472;SDS011;17263;48.160;11.452;2022-07-23T09:10:05;7.05;;;6.38;;
30472;SDS011;17263;48.160;11.452;2022-07-23T09:12:35;6.43;;;5.78;;
30472;SDS011;17263;48.160;11.452;2022-07-23T09:15:09;7.80;;;6.65;;
30472;SDS011;17263;48.160;11.452;2022-07-23T09:17:42;7.00;;;6.40;;
30472;SDS011;17263;48.160;11.452;2022-07-23T09:20:12;7.15;;;6.50;;
30472;SDS011;17263;48.160;11.452;2022-07-23T09:22:46;9.35;;;6.65;;
30472;SDS011;17263;48.160;11.452;2022-07-23T09:25:14;7.57;;;6.88;;
30472;SDS011;17263;48.160;11.452;2022-07-23T09:27:57;7.22;;;6.55;;
30472;SDS011;17263;48.160;11.452;2022-07-23T09:30:29;7.00;;;6.30;;
30472;SDS011;17263;48.160;11.452;2022-07-23T09:33:17;7.10;;;6.47;;
30472;SDS011;17263;48.160;11.452;2022-07-23T09:35:46;7.00;;;6.35;;
30472;SDS011;17263;48.160;11.452;2022-07-23T09:38:16;6.13;;;5.57;;
30472;SDS011;17263;48.160;11.452;2022-07-23T09:40:43;6.47;;;5.88;;
30472;SDS011;17263;48.160;11.452;2022-07-23T09:43:10;6.30;;;5.53;;
30472;SDS011;17263;48.160;11.452;2022-07-23T09:45:37;5.68;;;4.97;;
30472;SDS011;17263;48.160;11.452;2022-07-23T09:48:12;6.70;;;5.07;;
30472;SDS011;17263;48.160;11.452;2022-07-23T09:50:43;5.45;;;4.95;;
30472;SDS011;17263;48.160;11.452;2022-07-23T09:53:10;5.00;;;4.50;;
30472;SDS011;17263;48.160;11.452;2022-07-23T09:55:50;4.78;;;4.40;;
30472;SDS011;17263;48.160;11.452;2022-07-23T09:58:20;5.40;;;4.90;;
30472;SDS011;17263;48.160;11.452;2022-07-23T10:00:48;9.35;;;5.30;;
30472;SDS011;17263;48.160;11.452;2022-07-23T10:03:15;5.35;;;4.78;;
30472;SDS011;17263;48.160;11.452;2022-07-23T10:05:44;5.45;;;4.68;;
30472;SDS011;17263;48.160;11.452;2022-07-23T10:08:12;5.90;;;5.30;;
30472;SDS011;17263;48.160;11.452;2022-07-23T10:10:39;4.97;;;4.57;;
30472;SDS011;17263;48.160;11.452;2022-07-23T10:13:05;8.20;;;5.00;;
30472;SDS011;17263;48.160;11.452;2022-07-23T10:15:51;6.55;;;4.78;;
30472;SDS011;17263;48.160;11.452;2022-07-23T10:18:17;7.43;;;5.15;;
30472;SDS011;17263;48.160;11.452;2022-07-23T10:20:43;6.63;;;4.78;;
30472;SDS011;17263;48.160;11.452;2022-07-23T10:23:32;5.55;;;5.05;;
30472;SDS011;17263;48.160;11.452;2022-07-23T10:32:24;5.75;;;5.18;;
30472;SDS011;17263;48.160;11.452;2022-07-23T10:35:24;5.47;;;4.80;;
30472;SDS011;17263;48.160;11.452;2022-07-23T10:37:56;6.60;;;4.70;;
30472;SDS011;17263;48.160;11.452;2022-07-23T10:41:01;5.40;;;4.20;;
30472;SDS011;17263;48.160;11.452;2022-07-23T10:43:29;5.18;;;4.68;;
30472;SDS011;17263;48.160;11.452;2022-07-23T10:45:57;4.72;;;4.32;;
30472;SDS011;17263;48.160;11.452;2022-07-23T10:49:20;5.32;;;4.30;;
30472;SDS011;17263;48.160;11.452;2022-07-23T10:54:39;5.32;;;4.30;;
30472;SDS011;17263;48.160;11.452;2022-07-23T10:57:10;5.22;;;4.53;;
30472;SDS011;17263;48.160;11.452;2022-07-23T11:02:28;5.60;;;4.78;;
30472;SDS011;17263;48.160;11.452;2022-07-23T11:05:00;5.00;;;4.50;;
30472;SDS011;17263;48.160;11.452;2022-07-23T11:07:35;5.85;;;4.78;;
30472;SDS011;17263;48.160;11.452;2022-07-23T11:10:03;5.10;;;4.70;;
30472;SDS011;17263;48.160;11.452;2022-07-23T11:15:12;5.05;;;4.63;;
30472;SDS011;17263;48.160;11.452;2022-07-23T11:22:56;5.63;;;5.13;;
30472;SDS011;17263;48.160;11.452;2022-07-23T11:27:51;5.45;;;4.95;;
30472;SDS011;17263;48.160;11.452;2022-07-23T11:32:53;5.90;;;5.32;;
30472;SDS011;17263;48.160;11.452;2022-07-23T11:35:35;6.10;;;5.43;;
30472;SDS011;17263;48.160;11.452;2022-07-23T11:38:06;5.55;;;5.00;;
30472;SDS011;17263;48.160;11.452;2022-07-23T11:40:34;7.05;;;5.53;;
30472;SDS011;17263;48.160;11.452;2022-07-23T11:43:04;5.88;;;5.28;;
30472;SDS011;17263;48.160;11.452;2022-07-23T11:45:48;5.82;;;5.35;;
30472;SDS011;17263;48.160;11.452;2022-07-23T11:48:24;6.57;;;5.90;;
30472;SDS011;17263;48.160;11.452;2022-07-23T11:50:54;6.63;;;5.70;;
30472;SDS011;17263;48.160;11.452;2022-07-23T11:53:23;6.57;;;5.97;;
30472;SDS011;17263;48.160;11.452;2022-07-23T11:55:50;6.72;;;6.03;;
30472;SDS011;17263;48.160;11.452;2022-07-23T11:58:16;6.75;;;5.90;;
30472;SDS011;17263;48.160;11.452;2022-07-23T12:00:42;6.65;;;6.03;;
30472;SDS011;17263;48.160;11.452;2022-07-23T12:03:08;6.53;;;5.72;;
30472;SDS011;17263;48.160;11.452;2022-07-23T12:05:36;6.82;;;6.22;;
30472;SDS011;17263;48.160;11.452;2022-07-23T12:08:04;6.78;;;5.90;;
30472;SDS011;17263;48.160;11.452;2022-07-23T12:10:35;6.85;;;6.18;;
30472;SDS011;17263;48.160;11.452;2022-07-23T12:13:08;6.13;;;5.60;;
30472;SDS011;17263;48.160;11.452;2022-07-23T12:15:39;6.75;;;6.03;;
30472;SDS011;17263;48.160;11.452;2022-07-23T12:18:14;6.70;;;6.05;;
30472;SDS011;17263;48.160;11.452;2022-07-23T12:20:45;6.85;;;6.10;;
30472;SDS011;17263;48.160;11.452;2022-07-23T12:23:15;6.38;;;5.72;;
30472;SDS011;17263;48.160;11.452;2022-07-23T12:25:43;6.22;;;5.72;;
30472;SDS011;17263;48.160;11.452;2022-07-23T12:28:14;6.95;;;6.25;;
30472;SDS011;17263;48.160;11.452;2022-07-23T12:30:43;7.00;;;6.40;;
30472;SDS011;17263;48.160;11.452;2022-07-23T12:33:11;6.07;;;5.47;;
30472;SDS011;17263;48.160;11.452;2022-07-23T12:38:09;6.15;;;5.55;;
30472;SDS011;17263;48.160;11.452;2022-07-23T12:40:47;6.18;;;5.57;;
30472;SDS011;17263;48.160;11.452;2022-07-23T12:45:50;7.82;;;5.53;;
30472;SDS011;17263;48.160;11.452;2022-07-23T12:53:24;6.15;;;5.50;;
30472;SDS011;17263;48.160;11.452;2022-07-23T12:56:04;6.75;;;6.07;;
30472;SDS011;17263;48.160;11.452;2022-07-23T12:58:42;8.60;;;5.60;;
30472;SDS011;17263;48.160;11.452;2022-07-23T13:01:09;6.38;;;5.78;;
30472;SDS011;17263;48.160;11.452;2022-07-23T13:03:56;6.80;;;6.10;;
30472;SDS011;17263;48.160;11.452;2022-07-23T13:06:33;6.88;;;5.93;;
30472;SDS011;17263;48.160;11.452;2022-07-23T13:09:01;7.20;;;5.65;;
30472;SDS011;17263;48.160;11.452;2022-07-23T13:11:29;6.55;;;6.03;;
30472;SDS011;17263;48.160;11.452;2022-07-23T13:13:55;6.80;;;6.03;;
30472;SDS011;17263;48.160;11.452;2022-07-23T13:16:21;7.35;;;6.07;;
30472;SDS011;17263;48.160;11.452;2022-07-23T13:18:48;7.00;;;6.28;;
30472;SDS011;17263;48.160;11.452;2022-07-23T13:21:14;8.02;;;6.18;;
30472;SDS011;17263;48.160;11.452;2022-07-23T13:23:41;7.05;;;6.28;;
30472;SDS011;17263;48.160;11.452;2022-07-23T13:26:07;7.55;;;6.60;;
30472;SDS011;17263;48.160;11.452;2022-07-23T13:28:33;6.80;;;6.22;;
30472;SDS011;17263;48.160;11.452;2022-07-23T13:30:59;6.30;;;5.80;;
30472;SDS011;17263;48.160;11.452;2022-07-23T13:33:26;8.35;;;6.85;;
30472;SDS011;17263;48.160;11.452;2022-07-23T13:35:52;6.97;;;6.28;;
30472;SDS011;17263;48.160;11.452;2022-07-23T13:38:19;7.72;;;6.78;;
30472;SDS011;17263;48.160;11.452;2022-07-23T13:40:47;6.57;;;5.97;;
30472;SDS011;17263;48.160;11.452;2022-07-23T13:43:15;7.03;;;6.20;;
30472;SDS011;17263;48.160;11.452;2022-07-23T13:45:42;6.03;;;5.43;;
30472;SDS011;17263;48.160;11.452;2022-07-23T13:48:09;6.50;;;5.90;;
30472;SDS011;17263;48.160;11.452;2022-07-23T13:50:37;6.68;;;6.07;;
30472;SDS011;17263;48.160;11.452;2022-07-23T13:53:05;6.60;;;5.93;;
30472;SDS011;17263;48.160;11.452;2022-07-23T13:55:36;7.18;;;6.47;;
30472;SDS011;17263;48.160;11.452;2022-07-23T13:58:03;6.68;;;5.88;;
30472;SDS011;17263;48.160;11.452;2022-07-23T14:00:31;6.78;;;6.07;;
30472;SDS011;17263;48.160;11.452;2022-07-23T14:02:59;6.82;;;6.18;;
30472;SDS011;17263;48.160;11.452;2022-07-23T14:05:26;6.65;;;6.05;;
30472;SDS011;17263;48.160;11.452;2022-07-23T14:07:52;6.38;;;5.88;;
30472;SDS011;17263;48.160;11.452;2022-07-23T14:10:20;8.90;;;8.00;;
30472;SDS011;17263;48.160;11.452;2022-07-23T14:12:48;7.05;;;6.18;;
30472;SDS011;17263;48.160;11.452;2022-07-23T14:15:15;6.60;;;6.00;;
30472;SDS011;17263;48.160;11.452;2022-07-23T14:17:42;7.25;;;6.55;;
30472;SDS011;17263;48.160;11.452;2022-07-23T14:20:09;6.75;;;6.15;;
30472;SDS011;17263;48.160;11.452;2022-07-23T14:22:39;6.35;;;5.82;;
30472;SDS011;17263;48.160;11.452;2022-07-23T14:25:06;6.93;;;6.32;;
30472;SDS011;17263;48.160;11.452;2022-07-23T14:27:34;7.03;;;6.43;;
30472;SDS011;17263;48.160;11.452;2022-07-23T14:30:01;6.63;;;6.03;;
30472;SDS011;17263;48.160;11.452;2022-07-23T14:32:27;6.47;;;5.88;;
30472;SDS011;17263;48.160;11.452;2022-07-23T14:34:53;6.82;;;6.20;;
30472;SDS011;17263;48.160;11.452;2022-07-23T14:37:19;6.82;;;6.20;;
30472;SDS011;17263;48.160;11.452;2022-07-23T14:39:46;8.00;;;5.90;;
30472;SDS011;17263;48.160;11.452;2022-07-23T14:42:14;5.85;;;5.35;;
30472;SDS011;17263;48.160;11.452;2022-07-23T14:44:40;8.45;;;5.68;;
30472;SDS011;17263;48.160;11.452;2022-07-23T14:47:07;6.70;;;6.10;;
30472;SDS011;17263;48.160;11.452;2022-07-23T14:49:34;7.05;;;6.38;;
30472;SDS011;17263;48.160;11.452;2022-07-23T14:52:00;6.80;;;6.18;;
30472;SDS011;17263;48.160;11.452;2022-07-23T14:54:27;8.60;;;7.80;;
30472;SDS011;17263;48.160;11.452;2022-07-23T14:56:54;8.00;;;7.20;;
30472;SDS011;17263;48.160;11.452;2022-07-23T14:59:21;7.28;;;6.68;;
30472;SDS011;17263;48.160;11.452;2022-07-23T15:01:47;8.75;;;7.93;;
30472;SDS011;17263;48.160;11.452;2022-07-23T15:04:14;9.02;;;7.20;;
30472;SDS011;17263;48.160;11.452;2022-07-23T15:06:40;7.10;;;6.40;;
30472;SDS011;17263;48.160;11.452;2022-07-23T15:09:07;6.53;;;6.03;;
30472;SDS011;17263;48.160;11.452;2022-07-23T15:11:33;7.28;;;5.85;;
30472;SDS011;17263;48.160;11.452;2022-07-23T15:14:00;7.70;;;5.82;;
30472;SDS011;17263;48.160;11.452;2022-07-23T15:16:27;6.45;;;5.85;;